Time;durP1;ratioP1;P1;durP2;ratioP2;P2;SDS_P1;SDS_P2;PMS_P1;PMS_P2;Temp;Humidity;BMP_temperature;BMP_pressure;BME280_temperature;BME280_humidity;BME280_pressure;Samples;Min_cycle;Max_cycle;Signal;HPM_P1;HPM_P2
2021/11/26 00:01:11;;;;;;;58.48;32.35;;;;;;;3.57;76.23;99600.27;1586060;88;26007;-78
2021/11/26 00:03:38;;;;;;;62.10;32.85;;;;;;;3.57;76.39;99598.15;1568197;87;25775;-78
2021/11/26 00:06:05;;;;;;;57.93;32.65;;;;;;;3.57;76.58;99593.66;1630293;87;26256;-78
2021/11/26 00:08:33;;;;;;;58.28;31.52;;;;;;;3.58;76.59;99590.03;1586451;86;25876;-79
2021/11/26 00:10:59;;;;;;;68.28;34.88;;;;;;;3.58;76.48;99601.11;1552199;87;26989;-78
2021/11/26 00:13:36;;;;;;;59.13;33.28;;;;;;;3.56;76.59;99597.80;1621161;87;25784;-78
2021/11/26 00:16:05;;;;;;;57.50;29.87;;;;;;;3.57;76.77;99592.85;1615495;86;25834;-78
2021/11/26 00:18:27;;;;;;;59.80;31.87;;;;;;;3.57;76.78;99600.27;1598504;88;26168;-78
2021/11/26 00:20:55;;;;;;;60.23;32.67;;;;;;;3.59;76.87;99591.67;1597578;87;25944;-77
2021/11/26 00:23:22;;;;;;;59.67;32.50;;;;;;;3.62;76.94;99589.19;1580311;89;28206;-78
2021/11/26 00:25:49;;;;;;;56.48;30.70;;;;;;;3.63;76.85;99584.23;1592516;89;25849;-78
2021/11/26 00:28:16;;;;;;;64.03;32.50;;;;;;;3.60;76.74;99584.56;1572380;87;25869;-78
2021/11/26 00:30:45;;;;;;;58.15;31.30;;;;;;;3.60;76.68;99587.20;1593135;86;26171;-79
2021/11/26 00:33:12;;;;;;;58.70;31.52;;;;;;;3.59;76.63;99579.75;1613040;88;25896;-79
2021/11/26 00:35:39;;;;;;;54.58;31.10;;;;;;;3.58;76.68;99590.52;1593286;88;27526;-79
2021/11/26 00:38:06;;;;;;;53.85;31.07;;;;;;;3.58;76.94;99597.14;1617498;86;25853;-78
2021/11/26 00:40:33;;;;;;;58.38;31.75;;;;;;;3.58;76.76;99599.78;1575814;86;26021;-78
2021/11/26 00:43:00;;;;;;;66.55;33.92;;;;;;;3.57;76.96;99586.23;1625063;86;26179;-78
2021/11/26 00:45:28;;;;;;;63.90;35.60;;;;;;;3.57;77.08;99582.27;1629743;86;26600;-78
2021/11/26 00:47:55;;;;;;;59.00;31.33;;;;;;;3.58;77.14;99579.44;1572581;88;27400;-78
2021/11/26 00:50:22;;;;;;;64.47;33.50;;;;;;;3.58;76.91;99579.92;1572522;88;26631;-78
2021/11/26 00:52:49;;;;;;;45.78;26.15;;;;;;;3.58;77.16;99582.09;1553573;87;26023;-78
2021/11/26 00:55:17;;;;;;;64.03;31.33;;;;;;;3.59;77.06;99584.25;1635034;86;26914;-78
2021/11/26 00:57:44;;;;;;;60.52;32.55;;;;;;;3.59;77.37;99582.40;1621136;86;26596;-78
2021/11/26 01:00:16;;;;;;;60.98;32.80;;;;;;;3.61;77.25;99584.41;1612944;86;27647;-78
2021/11/26 01:02:43;;;;;;;62.62;33.35;;;;;;;3.60;77.16;99581.91;1608766;87;25877;-77
2021/11/26 01:05:12;;;;;;;60.03;33.05;;;;;;;3.59;77.02;99583.72;1593096;89;25959;-78
2021/11/26 01:07:40;;;;;;;61.13;32.08;;;;;;;3.58;77.13;99582.09;1567714;89;26111;-78
2021/11/26 01:10:13;;;;;;;54.40;30.65;;;;;;;3.58;77.21;99583.90;1528010;89;25923;-78
2021/11/26 01:12:40;;;;;;;61.53;31.85;;;;;;;3.58;77.14;99584.73;1579662;89;28276;-78
2021/11/26 01:15:10;;;;;;;60.95;33.53;;;;;;;3.57;77.16;99591.01;1604181;89;25914;-78
2021/11/26 01:17:41;;;;;;;60.52;31.30;;;;;;;3.59;77.42;99589.54;1567122;89;25914;-78
2021/11/26 01:20:11;;;;;;;60.73;32.95;;;;;;;3.60;77.44;99577.94;1568016;89;26812;-78
2021/11/26 01:22:38;;;;;;;57.95;30.97;;;;;;;3.60;77.43;99576.13;1593053;89;25966;-78
2021/11/26 01:25:07;;;;;;;54.77;31.40;;;;;;;3.60;77.35;99573.48;1627854;87;28309;-78
2021/11/26 01:27:36;;;;;;;62.85;33.45;;;;;;;3.60;77.25;99564.70;1564286;87;26610;-79
2021/11/26 01:30:13;;;;;;;55.92;31.02;;;;;;;3.60;77.39;99562.89;1564096;87;26045;-78
2021/11/26 01:32:36;;;;;;;62.78;32.85;;;;;;;3.61;77.25;99558.42;1627876;87;26188;-79
2021/11/26 01:35:03;;;;;;;59.30;32.83;;;;;;;3.62;77.44;99562.70;1628422;87;25910;-78
2021/11/26 01:37:30;;;;;;;60.48;32.60;;;;;;;3.60;77.38;99566.02;1564202;87;27511;-79
2021/11/26 01:39:57;;;;;;;59.60;32.28;;;;;;;3.59;77.27;99569.69;1563652;87;25933;-78
2021/11/26 01:42:24;;;;;;;59.10;31.95;;;;;;;3.58;77.34;99568.02;1628611;87;26223;-78
2021/11/26 01:44:51;;;;;;;57.80;31.05;;;;;;;3.57;77.58;99563.20;1634912;86;26078;-78
2021/11/26 01:47:18;;;;;;;57.78;32.73;;;;;;;3.57;77.47;99572.47;1611206;86;25785;-79
2021/11/26 01:49:45;;;;;;;61.20;33.05;;;;;;;3.58;77.65;99570.66;1611203;86;27601;-78
2021/11/26 01:52:12;;;;;;;62.95;33.58;;;;;;;3.58;77.69;99558.26;1618583;88;25760;-79
2021/11/26 01:54:39;;;;;;;56.77;31.12;;;;;;;3.59;77.69;99556.44;1597354;88;25867;-78
2021/11/26 01:57:06;;;;;;;57.03;31.20;;;;;;;3.56;77.38;99552.30;1578831;88;26217;-78
2021/11/26 01:59:33;;;;;;;58.20;31.45;;;;;;;3.57;77.64;99554.47;1576738;88;25963;-78
2021/11/26 02:02:00;;;;;;;54.20;31.87;;;;;;;3.56;77.64;99542.20;1621413;88;28104;-77
2021/11/26 02:04:27;;;;;;;56.88;31.52;;;;;;;3.58;77.73;99536.24;1621316;88;26693;-79
2021/11/26 02:06:54;;;;;;;58.83;33.73;;;;;;;3.60;77.85;99532.44;1578884;88;26149;-79
2021/11/26 02:09:21;;;;;;;53.38;30.82;;;;;;;3.62;77.63;99530.44;1575874;88;26839;-78
2021/11/26 02:11:48;;;;;;;58.85;32.58;;;;;;;3.59;77.49;99528.64;1621185;88;25738;-78
2021/11/26 02:14:15;;;;;;;47.65;27.52;;;;;;;3.60;77.58;99531.60;1596223;88;28157;-79
2021/11/26 02:16:48;;;;;;;52.23;29.45;;;;;;;3.59;77.47;99529.45;1579002;88;25881;-78
2021/11/26 02:19:16;;;;;;;54.73;30.68;;;;;;;3.58;77.54;99525.16;1597131;86;25892;-78
2021/11/26 02:21:43;;;;;;;55.65;31.33;;;;;;;3.59;77.76;99525.47;1655368;85;26114;-78
2021/11/26 02:24:11;;;;;;;55.12;30.75;;;;;;;3.57;77.51;99523.49;1632672;86;26589;-79
2021/11/26 02:26:42;;;;;;;55.52;31.15;;;;;;;3.58;77.46;99520.36;1586505;86;28343;-77
2021/11/26 02:29:10;;;;;;;;;;;;;;;3.57;77.57;99517.39;1604066;87;26002;-77
2021/11/26 02:31:38;;;;;;;53.10;29.30;;;;;;;3.56;77.53;99507.78;1656227;86;25763;-79
2021/11/26 02:34:05;;;;;;;53.28;30.77;;;;;;;3.53;77.90;99498.35;1616055;86;26801;-78
2021/11/26 02:36:32;;;;;;;55.50;30.65;;;;;;;3.56;77.89;99499.35;1638420;86;25334;-78
2021/11/26 02:38:59;;;;;;;48.52;28.27;;;;;;;3.54;77.97;99488.11;1629791;86;28260;-78
2021/11/26 02:41:27;;;;;;;56.23;31.05;;;;;;;3.55;77.89;99488.94;1630862;86;25815;-78
2021/11/26 02:43:54;;;;;;;52.80;29.70;;;;;;;3.56;78.07;99491.90;1631037;86;25980;-79
2021/11/26 02:46:21;;;;;;;49.05;28.02;;;;;;;3.57;78.15;99493.56;1610368;86;26186;-78
2021/11/26 02:48:48;;;;;;;54.65;31.00;;;;;;;3.57;78.00;99488.27;1655507;86;25749;-78
2021/11/26 02:51:15;;;;;;;53.73;30.48;;;;;;;3.56;78.01;99490.58;1576516;88;27585;-78
2021/11/26 02:53:42;;;;;;;50.15;29.45;;;;;;;3.55;78.06;99488.42;1618466;87;25790;-78
2021/11/26 02:56:09;;;;;;;52.67;29.27;;;;;;;3.56;78.21;99501.16;1575388;88;25895;-77
2021/11/26 02:58:36;;;;;;;50.23;28.50;;;;;;;3.53;78.15;99493.58;1621393;88;26088;-78
2021/11/26 03:01:04;;;;;;;52.55;30.15;;;;;;;3.52;78.00;99490.59;1556544;88;25878;-78
2021/11/26 03:03:31;;;;;;;55.12;31.05;;;;;;;3.51;78.18;99487.59;1618691;87;27676;-78
2021/11/26 03:06:02;;;;;;;52.08;30.05;;;;;;;3.49;78.22;99483.80;1597133;88;25778;-77
2021/11/26 03:08:31;;;;;;;50.78;30.48;;;;;;;3.49;78.33;99482.48;1621746;88;26449;-78
2021/11/26 03:11:00;;;;;;;54.40;31.12;;;;;;;3.51;78.44;99473.87;1559599;89;26023;-79
2021/11/26 03:13:28;;;;;;;50.43;29.45;;;;;;;3.51;78.39;99473.03;1572985;88;25853;-78
2021/11/26 03:15:56;;;;;;;52.85;30.20;;;;;;;3.50;78.36;99466.94;1592705;88;27580;-78
2021/11/26 03:18:26;;;;;;;52.03;30.10;;;;;;;3.51;78.42;99466.42;1618515;88;25803;-78
2021/11/26 03:20:52;;;;;;;53.15;31.97;;;;;;;3.50;78.33;99465.62;1552661;88;25830;-79
2021/11/26 03:23:21;;;;;;;53.25;29.55;;;;;;;3.48;78.45;99462.31;1614719;87;26171;-78
2021/11/26 03:25:48;;;;;;;55.17;31.10;;;;;;;3.50;78.52;99466.11;1592695;88;25948;-78
2021/11/26 03:28:16;;;;;;;59.13;30.23;;;;;;;3.51;78.63;99467.74;1618431;88;28171;-78
2021/11/26 03:30:44;;;;;;;57.93;31.48;;;;;;;3.52;78.44;99479.51;1552621;88;25932;-79
2021/11/26 03:33:12;;;;;;;56.92;30.65;;;;;;;3.51;78.31;99468.58;1571137;88;25882;-78
2021/11/26 03:35:39;;;;;;;53.02;30.55;;;;;;;3.52;78.47;99470.73;1618312;88;26226;-78
2021/11/26 03:38:06;;;;;;;52.75;31.73;;;;;;;3.52;78.57;99462.79;1618299;88;26006;-78
2021/11/26 03:40:33;;;;;;;52.88;29.63;;;;;;;3.55;78.71;99458.49;1552395;88;28754;-78
2021/11/26 03:43:01;;;;;;;53.58;30.70;;;;;;;3.56;78.58;99449.05;1614272;87;25766;-78
2021/11/26 03:45:31;;;;;;;55.17;30.88;;;;;;;3.55;78.59;99454.00;1592783;88;25936;-78
2021/11/26 03:47:59;;;;;;;52.17;30.25;;;;;;;3.54;78.73;99457.66;1618476;88;26152;-78
2021/11/26 03:50:28;;;;;;;50.88;29.30;;;;;;;3.57;78.80;99459.15;1552445;88;25927;-79
2021/11/26 03:52:55;;;;;;;56.58;31.42;;;;;;;3.58;78.72;99454.16;1614135;87;28159;-78
2021/11/26 03:55:27;;;;;;;50.58;28.75;;;;;;;3.56;78.65;99456.98;1592999;88;25907;-78
2021/11/26 03:57:55;;;;;;;57.10;31.12;;;;;;;3.58;78.79;99464.27;1618869;88;25605;-79
2021/11/26 04:00:23;;;;;;;54.42;30.05;;;;;;;3.57;78.71;99461.80;1601441;88;26333;-77
2021/11/26 04:02:50;;;;;;;54.63;30.62;;;;;;;3.56;78.77;99462.28;1587870;87;25830;-79
2021/11/26 04:05:17;;;;;;;53.08;29.87;;;;;;;3.56;78.91;99461.45;1571981;88;28102;-79
2021/11/26 04:07:44;;;;;;;53.87;31.30;;;;;;;3.56;78.81;99460.96;1618762;88;26592;-78
2021/11/26 04:10:12;;;;;;;52.98;29.67;;;;;;;3.57;78.85;99468.41;1552119;88;26032;-78
2021/11/26 04:12:39;;;;;;;56.98;31.85;;;;;;;3.58;79.03;99467.41;1618621;88;26211;-78
2021/11/26 04:15:10;;;;;;;55.95;30.97;;;;;;;3.56;79.05;99462.28;1592947;88;25909;-78
2021/11/26 04:17:37;;;;;;;;;;;;;;;3.58;79.14;99460.78;1621017;88;28208;-79
2021/11/26 04:20:08;;;;;;;51.88;28.27;;;;;;;3.57;79.11;99463.12;1572051;88;25925;-80
2021/11/26 04:22:35;;;;;;;;;;;;;;;3.54;79.26;99465.60;1578747;87;25852;-79
2021/11/26 04:25:02;;;;;;;51.75;28.60;;;;;;;3.54;79.30;99459.47;1620421;87;26306;-79
2021/11/26 04:27:30;;;;;;;52.40;27.82;;;;;;;3.53;79.32;99459.16;1570038;88;25841;-78
2021/11/26 04:29:57;;;;;;;52.62;29.23;;;;;;;3.53;79.42;99445.41;1631334;86;27665;-79
2021/11/26 04:32:26;;;;;;;53.55;30.27;;;;;;;3.53;79.23;99440.11;1631218;86;25935;-79
2021/11/26 04:34:53;;;;;;;55.58;31.97;;;;;;;3.54;79.29;99441.77;1609980;86;25855;-79
2021/11/26 04:37:20;;;;;;;57.17;31.05;;;;;;;3.52;79.37;99450.39;1609843;86;26802;-78
2021/11/26 04:39:48;;;;;;;52.20;30.10;;;;;;;3.53;79.55;99443.28;1609618;86;25888;-78
2021/11/26 04:42:15;;;;;;;54.13;30.12;;;;;;;3.54;79.52;99442.27;1630680;86;28103;-78
2021/11/26 04:44:43;;;;;;;56.85;31.75;;;;;;;3.55;79.65;99443.41;1630784;86;43433;-79
2021/11/26 04:47:10;;;;;;;57.62;32.53;;;;;;;3.54;79.49;99435.16;1620070;86;26219;-79
2021/11/26 04:49:37;;;;;;;51.73;29.07;;;;;;;3.54;79.57;99432.51;1633710;86;26698;-79
2021/11/26 04:52:05;;;;;;;53.28;30.10;;;;;;;3.55;79.64;99434.14;1579663;86;25861;-79
2021/11/26 04:54:32;;;;;;;58.48;32.23;;;;;;;3.57;79.63;99440.61;1601841;86;28057;-79
2021/11/26 04:56:59;;;;;;;58.73;31.40;;;;;;;3.57;79.62;99435.32;1635000;86;25911;-78
2021/11/26 04:59:26;;;;;;;58.20;32.23;;;;;;;3.57;79.57;99433.47;1648597;86;25809;-79
2021/11/26 05:01:53;;;;;;;56.95;32.45;;;;;;;3.57;79.57;99426.85;1629222;86;26880;-78
2021/11/26 05:04:20;;;;;;;58.25;30.45;;;;;;;3.58;79.63;99432.49;1617854;86;25803;-79
2021/11/26 05:06:47;;;;;;;57.75;31.10;;;;;;;3.57;79.59;99437.44;1655521;86;27506;-78
2021/11/26 05:09:14;;;;;;;56.30;31.00;;;;;;;3.59;79.61;99435.97;1627806;87;26008;-78
2021/11/26 05:11:41;;;;;;;55.58;31.45;;;;;;;3.57;79.60;99430.83;1605327;86;26421;-79
2021/11/26 05:14:09;;;;;;;62.40;32.78;;;;;;;3.55;79.66;99432.02;1629546;86;26672;-78
2021/11/26 05:16:36;;;;;;;55.58;30.97;;;;;;;3.58;79.70;99429.84;1654667;86;25896;-79
2021/11/26 05:19:03;;;;;;;56.08;31.82;;;;;;;3.58;79.64;99427.69;1654464;86;28295;-78
2021/11/26 05:21:30;;;;;;;55.23;30.30;;;;;;;3.57;79.73;99430.02;1611548;86;25945;-79
2021/11/26 05:23:57;;;;;;;59.58;32.78;;;;;;;3.59;79.92;99434.12;1631503;86;25753;-79
2021/11/26 05:26:25;;;;;;;58.00;32.45;;;;;;;3.63;79.90;99425.36;1654152;86;26078;-78
2021/11/26 05:28:52;;;;;;;59.25;31.95;;;;;;;3.62;79.85;99429.83;1654252;86;25920;-78
2021/11/26 05:31:21;;;;;;;54.13;30.97;;;;;;;3.63;79.79;99422.72;1564899;86;27544;-78
2021/11/26 05:33:49;;;;;;;57.40;31.12;;;;;;;3.63;79.86;99433.31;1596982;86;25902;-79
2021/11/26 05:36:16;;;;;;;55.10;31.73;;;;;;;3.63;79.73;99435.95;1654369;86;26685;-79
2021/11/26 05:38:43;;;;;;;58.10;32.25;;;;;;;3.62;79.72;99425.86;1654285;86;26086;-78
2021/11/26 05:41:11;;;;;;;54.25;31.80;;;;;;;3.63;79.82;99425.36;1610186;86;25906;-79
2021/11/26 05:43:38;;;;;;;57.33;31.57;;;;;;;3.64;79.63;99432.30;1586797;86;27268;-78
2021/11/26 05:46:05;;;;;;;48.52;27.95;;;;;;;3.62;79.53;99436.94;1631930;86;25788;-78
2021/11/26 05:48:32;;;;;;;53.95;30.12;;;;;;;3.61;79.64;99426.87;1629623;86;25786;-78
2021/11/26 05:50:59;;;;;;;55.12;30.27;;;;;;;3.63;79.73;99438.11;1601240;86;26217;-79
2021/11/26 05:53:26;;;;;;;50.95;28.70;;;;;;;3.64;79.75;99438.91;1577491;86;25870;-78
2021/11/26 05:55:57;;;;;;;59.50;31.95;;;;;;;3.61;79.81;99445.89;1621420;86;27484;-79
2021/11/26 05:58:22;;;;;;;52.40;28.17;;;;;;;3.61;79.92;99446.73;1654939;86;25882;-78
2021/11/26 06:00:49;;;;;;;60.23;31.20;;;;;;;3.62;79.99;99449.69;1602366;86;26515;-79
2021/11/26 06:03:16;;;;;;;56.13;31.82;;;;;;;3.62;80.07;99446.20;1577500;86;26179;-79
2021/11/26 06:05:43;;;;;;;55.30;31.02;;;;;;;3.63;80.18;99443.90;1655524;86;25901;-79
2021/11/26 06:08:10;;;;;;;51.33;28.77;;;;;;;3.63;80.18;99435.95;1655748;86;27626;-79
2021/11/26 06:10:37;;;;;;;55.58;30.43;;;;;;;3.64;80.07;99432.30;1590348;86;25811;-79
2021/11/26 06:13:05;;;;;;;59.25;32.65;;;;;;;3.62;80.12;99429.83;1600839;86;26128;-81
2021/11/26 06:15:32;;;;;;;54.80;29.55;;;;;;;3.60;80.21;99418.58;1655775;86;27269;-81
2021/11/26 06:17:59;;;;;;;57.10;30.82;;;;;;;3.62;80.29;99419.23;1655909;86;25758;-79
2021/11/26 06:20:27;;;;;;;58.83;30.62;;;;;;;3.60;80.22;99421.23;1590351;86;28380;-79
2021/11/26 06:22:54;;;;;;;56.83;31.95;;;;;;;3.62;80.29;99413.94;1655008;86;25879;-79
2021/11/26 06:25:23;;;;;;;63.10;34.10;;;;;;;3.62;80.30;99416.59;1655673;86;25845;-79
2021/11/26 06:27:51;;;;;;;64.32;32.20;;;;;;;3.64;80.47;99423.86;1650327;86;26150;-78
2021/11/26 06:30:21;;;;;;;58.10;30.70;;;;;;;3.64;80.49;99417.73;1585583;87;26537;-78
2021/11/26 06:32:49;;;;;;;55.58;28.55;;;;;;;3.65;80.60;99421.55;1606275;87;27678;-79
2021/11/26 06:35:20;;;;;;;58.15;31.50;;;;;;;3.66;80.52;99428.98;1628657;87;25266;-79
2021/11/26 06:37:49;;;;;;;63.17;32.93;;;;;;;3.65;80.67;99424.69;1629528;87;25821;-79
2021/11/26 06:40:17;;;;;;;57.55;31.57;;;;;;;3.66;80.74;99422.36;1585922;87;26782;-79
2021/11/26 06:42:44;;;;;;;61.40;32.25;;;;;;;3.65;80.74;99429.50;1573796;87;25843;-78
2021/11/26 06:45:11;;;;;;;58.15;31.77;;;;;;;3.68;80.87;99426.48;1628875;87;27524;-79
2021/11/26 06:47:39;;;;;;;60.03;31.73;;;;;;;3.70;80.94;99417.88;1654196;86;25798;-78
2021/11/26 06:50:08;;;;;;;61.33;32.35;;;;;;;3.72;80.90;99415.08;1610981;86;25857;-79
2021/11/26 06:52:35;;;;;;;59.30;31.77;;;;;;;3.74;81.02;99411.75;1555680;88;26775;-78
2021/11/26 06:55:06;;;;;;;63.30;33.30;;;;;;;3.75;80.93;99420.84;1618989;87;25781;-78
2021/11/26 06:57:33;;;;;;;59.25;32.17;;;;;;;3.75;80.98;99418.20;1621639;88;28507;-78
2021/11/26 07:00:00;;;;;;;61.50;32.85;;;;;;;3.76;81.03;99417.18;1596946;88;26018;-78
2021/11/26 07:02:27;;;;;;;61.37;33.13;;;;;;;3.74;80.84;99423.15;1559406;89;25791;-79
2021/11/26 07:04:54;;;;;;;59.80;32.63;;;;;;;3.74;80.91;99422.34;1618589;88;26310;-79
2021/11/26 07:07:21;;;;;;;61.60;33.85;;;;;;;3.73;80.95;99420.19;1618947;88;25780;-78
2021/11/26 07:09:48;;;;;;;58.75;32.67;;;;;;;3.74;81.11;99423.67;1556638;88;27658;-78
2021/11/26 07:12:15;;;;;;;65.32;34.23;;;;;;;3.78;81.16;99424.48;1572496;88;26011;-78
2021/11/26 07:14:45;;;;;;;62.83;35.43;;;;;;;3.81;81.29;99429.42;1618980;88;25861;-78
2021/11/26 07:17:14;;;;;;;67.27;36.70;;;;;;;3.83;81.38;99434.05;1619249;88;26217;-78
2021/11/26 07:19:46;;;;;;;64.85;33.85;;;;;;;3.85;81.40;99428.08;1593833;88;25917;-79
2021/11/26 07:22:12;;;;;;;60.75;32.75;;;;;;;3.87;81.40;99431.38;1571926;88;27337;-79
2021/11/26 07:24:39;;;;;;;58.58;33.73;;;;;;;3.88;81.30;99432.20;1618550;88;26041;-78
2021/11/26 07:27:06;;;;;;;64.82;35.88;;;;;;;3.88;81.36;99436.18;1618897;88;25829;-79
2021/11/26 07:29:33;;;;;;;62.85;33.00;;;;;;;3.89;81.49;99428.05;1576953;88;26233;-79
2021/11/26 07:32:00;;;;;;;58.25;33.80;;;;;;;3.91;81.43;99434.52;1571620;88;26379;-79
2021/11/26 07:34:27;;;;;;;64.85;34.80;;;;;;;3.93;81.37;99440.48;1619051;88;27642;-78
2021/11/26 07:36:55;;;;;;;65.45;35.70;;;;;;;3.93;81.34;99421.93;1618679;88;26448;-78
2021/11/26 07:39:23;;;;;;;62.33;34.18;;;;;;;3.95;81.45;99419.93;1573358;88;26474;-79
2021/11/26 07:41:52;;;;;;;63.13;34.10;;;;;;;3.96;81.41;99413.62;1551608;88;26080;-79
2021/11/26 07:44:19;;;;;;;62.70;34.65;;;;;;;3.99;81.59;99417.75;1619028;88;25906;-79
2021/11/26 07:46:47;;;;;;;60.23;31.42;;;;;;;4.00;81.34;99416.77;1593333;88;27658;-79
2021/11/26 07:49:13;;;;;;;62.78;35.63;;;;;;;3.98;81.30;99407.64;1551813;88;25878;-79
2021/11/26 07:51:40;;;;;;;66.07;34.13;;;;;;;3.99;81.23;99406.66;1551713;88;25875;-78
2021/11/26 07:54:08;;;;;;;61.40;32.23;;;;;;;3.99;81.27;99401.85;1577325;88;26936;-78
2021/11/26 07:56:35;;;;;;;60.58;32.78;;;;;;;4.01;81.29;99403.34;1614681;88;26620;-79
2021/11/26 07:59:03;;;;;;;64.55;34.63;;;;;;;4.01;81.13;99404.66;1573373;88;27490;-78
2021/11/26 08:01:30;;;;;;;60.17;33.42;;;;;;;4.02;81.22;99404.97;1551591;88;25676;-78
2021/11/26 08:03:57;;;;;;;59.65;32.23;;;;;;;4.01;81.09;99404.66;1618887;88;26030;-79
2021/11/26 08:06:24;;;;;;;61.45;34.00;;;;;;;3.99;81.06;99409.31;1614495;88;26253;-79
2021/11/26 08:08:51;;;;;;;59.53;33.13;;;;;;;4.01;81.23;99413.94;1576776;88;25836;-78
2021/11/26 08:11:18;;;;;;;69.00;37.58;;;;;;;4.01;81.13;99415.75;1551482;88;27595;-78
2021/11/26 08:13:45;;;;;;;74.97;39.13;;;;;;;4.02;81.36;99411.59;1572877;88;25848;-79
2021/11/26 08:16:13;;;;;;;65.57;35.23;;;;;;;4.04;81.36;99415.41;1618823;88;25771;-79
2021/11/26 08:18:40;;;;;;;65.25;35.65;;;;;;;4.04;81.28;99410.95;1552952;88;26089;-78
2021/11/26 08:21:07;;;;;;;67.97;36.17;;;;;;;4.02;80.97;99407.62;1597268;88;25841;-79
2021/11/26 08:23:34;;;;;;;61.37;33.92;;;;;;;4.02;81.26;99412.92;1571739;88;28248;-78
2021/11/26 08:26:01;;;;;;;64.50;33.90;;;;;;;4.05;81.33;99417.05;1572778;88;25769;-78
2021/11/26 08:28:29;;;;;;;70.32;35.90;;;;;;;4.07;81.40;99411.08;1593251;88;26711;-79
2021/11/26 08:30:56;;;;;;;63.40;35.73;;;;;;;4.09;81.34;99407.75;1576674;88;27029;-79
2021/11/26 08:33:25;;;;;;;62.00;33.02;;;;;;;4.10;81.18;99418.20;1571901;88;25766;-79
2021/11/26 08:35:54;;;;;;;63.13;34.67;;;;;;;4.08;81.12;99405.63;1618715;88;27492;-78
2021/11/26 08:38:21;;;;;;;69.50;36.80;;;;;;;4.09;81.27;99418.34;1593170;88;25844;-78
2021/11/26 08:40:49;;;;;;;64.75;35.68;;;;;;;4.10;81.34;99416.88;1552657;88;25926;-78
2021/11/26 08:43:17;;;;;;;62.90;34.88;;;;;;;4.12;81.28;99416.69;1551951;88;26093;-79
2021/11/26 08:45:44;;;;;;;64.42;35.75;;;;;;;4.13;81.40;99420.48;1615608;88;25838;-78
2021/11/26 08:48:12;;;;;;;69.47;34.88;;;;;;;4.16;81.43;99424.61;1586889;89;27437;-78
2021/11/26 08:50:40;;;;;;;58.85;32.70;;;;;;;4.13;81.11;99421.01;1546817;90;25874;-78
2021/11/26 08:53:09;;;;;;;77.08;42.17;;;;;;;4.12;81.05;99412.72;1567124;90;26003;-78
2021/11/26 08:55:38;;;;;;;64.00;34.15;;;;;;;4.14;81.31;99421.31;1566480;90;26810;-78
2021/11/26 08:58:09;;;;;;;62.05;33.02;;;;;;;4.15;81.12;99417.16;1586640;90;26056;-78
2021/11/26 09:00:36;;;;;;;64.00;35.48;;;;;;;4.15;80.98;99415.03;1567512;90;27627;-78
2021/11/26 09:03:05;;;;;;;63.98;36.23;;;;;;;4.17;81.20;99415.16;1566162;90;26284;-78
2021/11/26 09:05:33;;;;;;;65.05;36.13;;;;;;;4.18;81.15;99416.81;1586628;88;25846;-79
2021/11/26 09:08:02;;;;;;;61.92;34.03;;;;;;;4.19;81.01;99413.67;1566229;90;26649;-78
2021/11/26 09:10:34;;;;;;;77.50;42.88;;;;;;;4.19;81.04;99411.83;1566080;90;25947;-79
2021/11/26 09:13:02;;;;;;;64.35;37.63;;;;;;;4.21;81.05;99406.37;1566426;90;27467;-78
2021/11/26 09:15:30;;;;;;;67.60;35.83;;;;;;;4.24;81.25;99399.37;1591660;90;26330;-78
2021/11/26 09:17:57;;;;;;;68.10;35.75;;;;;;;4.26;81.45;99392.91;1586720;88;25373;-78
2021/11/26 09:20:25;;;;;;;62.10;34.30;;;;;;;4.29;81.31;99394.39;1586555;88;26791;-78
2021/11/26 09:22:53;;;;;;;61.40;33.80;;;;;;;4.32;81.26;99392.73;1567364;90;26226;-78
2021/11/26 09:25:21;;;;;;;65.00;35.70;;;;;;;4.34;81.30;99394.17;1591885;90;27658;-78
2021/11/26 09:27:48;;;;;;;60.05;33.35;;;;;;;4.36;81.20;99393.49;1586320;89;25850;-79
2021/11/26 09:30:20;;;;;;;63.87;35.40;;;;;;;4.36;81.09;99388.19;1566129;90;26280;-79
2021/11/26 09:32:47;;;;;;;68.10;34.67;;;;;;;4.35;80.83;99381.75;1547594;90;26101;-79
2021/11/26 09:35:15;;;;;;;74.85;40.15;;;;;;;4.35;80.78;99373.80;1591756;90;25614;-78
2021/11/26 09:37:42;;;;;;;73.37;36.35;;;;;;;4.38;81.05;99376.11;1566082;90;27507;-79
2021/11/26 09:40:12;;;;;;;63.58;34.98;;;;;;;4.42;81.14;99374.75;1534455;90;25874;-79
2021/11/26 09:42:43;;;;;;;65.92;36.55;;;;;;;4.45;81.20;99373.88;1567007;90;25933;-78
2021/11/26 09:45:21;;;;;;;63.68;34.03;;;;;;;4.49;81.30;99372.52;1591732;88;26784;-79
2021/11/26 09:47:49;;;;;;;58.38;33.40;;;;;;;4.51;81.14;99370.52;1571652;88;25901;-79
2021/11/26 09:50:17;;;;;;;61.85;33.92;;;;;;;4.52;81.02;99361.57;1576569;88;27456;-79
2021/11/26 09:52:44;;;;;;;60.78;34.85;;;;;;;4.53;80.89;99359.23;1571527;88;25791;-78
2021/11/26 09:55:15;;;;;;;65.92;34.83;;;;;;;4.51;80.59;99350.63;1618921;88;25845;-79
2021/11/26 09:57:42;;;;;;;66.50;36.55;;;;;;;4.51;80.80;99343.20;1593037;88;26250;-78
2021/11/26 10:00:13;;;;;;;73.67;39.90;;;;;;;4.51;80.71;99336.04;1573124;88;25849;-79
2021/11/26 10:02:53;;;;;;;65.65;35.88;;;;;;;4.53;81.00;99332.71;1571567;88;27540;-79
2021/11/26 10:05:21;;;;;;;67.17;35.48;;;;;;;4.56;80.96;99328.88;1618943;88;26288;-81
2021/11/26 10:07:52;;;;;;;68.00;35.45;;;;;;;4.59;80.99;99322.73;1593237;88;25353;-79
2021/11/26 10:10:27;;;;;;;67.67;36.15;;;;;;;4.61;80.75;99315.42;1576985;88;26308;-78
2021/11/26 10:13:06;;;;;;;63.35;35.60;;;;;;;4.64;80.92;99307.61;1593379;88;26065;-79
2021/11/26 10:15:41;;;;;;;74.42;37.88;;;;;;;4.68;81.00;99304.92;1618354;87;27627;-79
2021/11/26 10:18:14;;;;;;;67.15;35.95;;;;;;;4.72;80.94;99299.57;1572460;88;25913;-78
2021/11/26 10:20:59;;;;;;;70.30;37.30;;;;;;;4.76;80.86;99298.70;1573298;88;25816;-79
2021/11/26 10:23:31;;;;;;;67.15;37.17;;;;;;;4.78;80.80;99305.47;1593269;88;26871;-78
2021/11/26 10:26:18;;;;;;;67.30;36.58;;;;;;;4.83;80.94;99303.11;1619099;88;25843;-78
2021/11/26 10:28:50;;;;;;;67.70;36.77;;;;;;;4.87;80.76;99303.06;1593420;88;27374;-78
2021/11/26 10:31:26;;;;;;;69.50;38.28;;;;;;;4.91;80.72;99292.91;1552185;88;25904;-79
2021/11/26 10:33:57;;;;;;;65.20;36.80;;;;;;;4.94;80.78;99296.53;1593030;88;25883;-79
2021/11/26 10:36:25;;;;;;;;;;;;;;;4.97;80.71;99286.37;1595632;88;26873;-80
2021/11/26 10:38:53;;;;;;;65.25;34.43;;;;;;;5.00;80.77;99284.69;1593331;88;25854;-78
2021/11/26 10:41:29;;;;;;;62.55;33.85;;;;;;;5.03;80.83;99280.81;1614077;87;28237;-79
2021/11/26 10:43:59;;;;;;;62.43;34.78;;;;;;;5.05;80.66;99282.29;1618419;88;25922;-79
2021/11/26 10:59:44;;;;;;;68.70;35.68;;;;;;;5.17;80.12;99263.59;1565376;90;26301;-79
2021/11/26 11:02:27;;;;;;;63.13;33.50;;;;;;;5.19;80.16;99262.06;1566247;90;26609;-78
2021/11/26 11:04:55;;;;;;;68.83;37.45;;;;;;;5.20;80.27;99262.36;1586399;90;26624;-79
2021/11/26 11:07:22;;;;;;;60.78;31.50;;;;;;;5.21;80.21;99259.55;1567588;90;27541;-79
2021/11/26 11:09:56;;;;;;;64.32;34.63;;;;;;;5.20;80.15;99248.59;1545935;90;25950;-78
2021/11/26 11:12:33;;;;;;;64.35;34.60;;;;;;;5.22;80.33;99257.20;1587842;88;25921;-79
2021/11/26 11:15:05;;;;;;;65.15;35.40;;;;;;;5.25;80.32;99240.91;1586108;88;27264;-80
2021/11/26 11:17:32;;;;;;;68.30;37.03;;;;;;;5.28;80.33;99239.72;1591370;90;26306;-79
2021/11/26 11:20:10;;;;;;;63.75;33.98;;;;;;;5.30;80.11;99236.38;1546008;90;28113;-79
2021/11/26 11:22:39;;;;;;;71.40;35.15;;;;;;;5.33;80.17;99234.66;1567128;90;25359;-79
2021/11/26 11:25:09;;;;;;;67.22;37.08;;;;;;;5.33;80.14;99222.71;1586201;88;25841;-78
2021/11/26 11:27:37;;;;;;;67.08;35.35;;;;;;;5.35;80.18;99216.70;1591984;88;26125;-78
2021/11/26 11:30:08;;;;;;;66.77;35.73;;;;;;;5.36;80.00;99217.04;1545950;90;25826;-78
2021/11/26 11:32:38;;;;;;;64.85;35.60;;;;;;;5.37;80.12;99202.23;1587797;88;27574;-79
2021/11/26 11:35:09;;;;;;;70.52;37.00;;;;;;;5.39;80.22;99199.39;1567195;90;26232;-79
2021/11/26 11:37:37;;;;;;;67.95;36.23;;;;;;;5.39;80.10;99196.73;1592031;90;32667;-78
2021/11/26 11:40:08;;;;;;;63.48;35.88;;;;;;;5.42;80.06;99183.09;1585215;89;26758;-79
2021/11/26 11:42:42;;;;;;;;;;;;;;;5.42;80.00;99187.08;1590206;88;25860;-79
2021/11/26 11:45:20;;;;;;;61.55;30.95;;;;;;;5.42;79.80;99189.23;1591591;89;27519;-79